Time;durP1;ratioP1;P1;durP2;ratioP2;P2;SDS_P1;SDS_P2;PMS_P1;PMS_P2;Temp;Humidity;BMP_temperature;BMP_pressure;BME280_temperature;BME280_humidity;BME280_pressure;Samples;Min_cycle;Max_cycle;Signal;HPM_P1;HPM_P2
2022/06/05 00:00:43;;;;;;;24.27;18.58;;;;;;;20.39;100.00;100418.12;4486223;31;20419;-63
2022/06/05 00:03:38;;;;;;;13.27;11.70;;;;;;;20.39;100.00;100423.47;4486271;31;20156;-63
2022/06/05 00:06:24;;;;;;;11.80;9.05;;;;;;;20.46;100.00;100415.97;4486223;31;20506;-63
2022/06/05 00:09:38;;;;;;;9.43;8.10;;;;;;;20.46;100.00;100416.84;4486363;31;20196;-63
2022/06/05 00:12:07;;;;;;;10.15;6.15;;;;;;;20.52;100.00;100413.00;4470511;31;20092;-63
2022/06/05 00:14:39;;;;;;;8.95;5.00;;;;;;;20.56;100.00;100411.88;4486466;31;20166;-63
2022/06/05 00:17:09;;;;;;;10.15;4.62;;;;;;;20.60;100.00;100417.94;4486392;31;20150;-63
2022/06/05 00:19:39;;;;;;;13.55;5.80;;;;;;;20.53;100.00;100415.63;4486185;31;20146;-63
2022/06/05 00:22:07;;;;;;;8.10;5.10;;;;;;;20.41;100.00;100407.31;4486101;31;20410;-63
2022/06/05 00:24:35;;;;;;;7.75;5.35;;;;;;;20.30;100.00;100407.88;4486062;31;20083;-63
2022/06/05 00:27:27;;;;;;;5.87;5.32;;;;;;;20.31;100.00;100406.94;4486100;31;20092;-63
2022/06/05 00:29:57;;;;;;;10.15;5.32;;;;;;;20.49;100.00;100400.63;4486233;31;20125;-63
2022/06/05 00:32:33;;;;;;;7.25;4.47;;;;;;;20.63;100.00;100399.06;4486347;31;20115;-63
2022/06/05 00:35:00;;;;;;;11.82;5.47;;;;;;;20.74;100.00;100389.50;4486182;31;20088;-63
2022/06/05 00:38:01;;;;;;;7.47;5.15;;;;;;;20.73;100.00;100393.13;4486151;31;20088;-63
2022/06/05 00:40:44;;;;;;;5.78;4.30;;;;;;;20.67;100.00;100392.56;4486117;31;20444;-63
2022/06/05 00:43:15;;;;;;;6.78;4.78;;;;;;;20.61;100.00;100379.53;4486078;31;20143;-63
2022/06/05 00:45:43;;;;;;;5.03;4.62;;;;;;;20.74;98.68;100380.59;4486211;31;20444;-63
2022/06/05 00:48:11;;;;;;;7.90;5.12;;;;;;;20.75;98.74;100379.66;4485994;31;20483;-63
2022/06/05 00:50:41;;;;;;;6.97;4.68;;;;;;;20.84;96.00;100378.28;4485955;31;20126;-63
2022/06/05 00:53:10;;;;;;;9.35;4.78;;;;;;;20.86;96.26;100382.63;4485956;31;20163;-63
2022/06/05 00:55:42;;;;;;;9.25;5.00;;;;;;;20.81;97.11;100376.63;4485928;31;20158;-63
2022/06/05 00:58:10;;;;;;;5.87;5.05;;;;;;;20.82;96.90;100391.78;4485974;31;20157;-63
2022/06/05 01:00:42;;;;;;;5.03;4.62;;;;;;;20.79;96.75;100386.59;4485049;31;20091;-63
2022/06/05 01:03:11;;;;;;;6.70;4.80;;;;;;;20.79;96.26;100391.94;4486102;31;20492;-63
2022/06/05 01:05:39;;;;;;;5.03;4.60;;;;;;;20.81;96.29;100390.03;4485978;31;20116;-63
2022/06/05 01:08:09;;;;;;;7.43;4.37;;;;;;;20.82;96.09;100388.22;4485948;31;20123;-63
2022/06/05 01:11:13;;;;;;;7.78;4.53;;;;;;;20.72;95.71;100388.72;4485832;31;20477;-63
2022/06/05 01:14:29;;;;;;;7.03;5.00;;;;;;;20.65;97.18;100381.97;4485869;31;20131;-63
2022/06/05 01:17:14;;;;;;;5.32;4.90;;;;;;;20.51;99.33;100376.47;4485905;31;20088;-63
2022/06/05 01:19:51;;;;;;;8.00;4.32;;;;;;;20.35;100.00;100379.06;4485814;31;20436;-63
2022/06/05 01:22:37;;;;;;;6.40;4.30;;;;;;;20.26;98.94;100380.41;4485729;31;20096;-63
2022/06/05 01:25:07;;;;;;;7.20;4.40;;;;;;;20.18;100.00;100379.09;4485652;31;20083;-63
2022/06/05 01:27:40;;;;;;;6.20;4.45;;;;;;;20.08;100.00;100388.53;4485881;31;20450;-63
2022/06/05 01:30:20;;;;;;;9.88;4.62;;;;;;;20.02;100.00;100384.34;4470946;31;20125;-63
2022/06/05 01:33:07;;;;;;;8.57;5.05;;;;;;;20.01;100.00;100385.31;4485752;31;20156;-63
2022/06/05 01:35:53;;;;;;;5.65;4.90;;;;;;;19.98;100.00;100390.81;4485720;31;20127;-63
2022/06/05 01:38:33;;;;;;;8.15;4.70;;;;;;;20.00;100.00;100389.78;4485754;31;20203;-63
2022/06/05 01:41:08;;;;;;;5.53;4.68;;;;;;;19.97;100.00;100389.94;4485439;31;20092;-63
2022/06/05 01:43:40;;;;;;;9.40;5.43;;;;;;;19.99;100.00;100393.37;4485630;31;20107;-63
2022/06/05 01:46:16;;;;;;;5.18;4.68;;;;;;;19.97;100.00;100395.28;4485624;31;20146;-63
2022/06/05 01:48:51;;;;;;;6.32;5.20;;;;;;;19.97;100.00;100397.97;4485552;31;20149;-63
2022/06/05 01:51:56;;;;;;;5.53;5.00;;;;;;;19.98;100.00;100397.03;4485425;31;20123;-63
2022/06/05 01:54:30;;;;;;;5.43;4.45;;;;;;;19.94;100.00;100398.12;4466188;31;20238;-63
2022/06/05 01:57:00;;;;;;;6.90;5.40;;;;;;;19.93;100.00;100393.72;4485487;31;20175;-63
2022/06/05 01:59:30;;;;;;;6.05;5.32;;;;;;;19.86;100.00;100392.31;4485446;31;20140;-63
2022/06/05 02:01:59;;;;;;;13.57;5.62;;;;;;;19.82;100.00;100398.72;4485285;31;20527;-63
2022/06/05 02:04:38;;;;;;;6.35;5.45;;;;;;;19.73;100.00;100400.06;4485373;31;20100;-63
2022/06/05 02:07:20;;;;;;;6.95;5.47;;;;;;;19.67;100.00;100392.31;4485488;31;20144;-63
2022/06/05 02:09:50;;;;;;;7.05;6.00;;;;;;;19.68;100.00;100396.75;4485255;31;20140;-63
2022/06/05 02:12:18;;;;;;;8.50;6.10;;;;;;;19.68;100.00;100391.41;4484944;31;20108;-63
2022/06/05 02:14:46;;;;;;;6.87;6.05;;;;;;;19.66;100.00;100398.62;4485356;31;20764;-63
2022/06/05 02:17:14;;;;;;;7.03;5.95;;;;;;;19.67;100.00;100399.50;4485137;31;20155;-63
2022/06/05 02:19:42;;;;;;;13.68;6.53;;;;;;;19.59;100.00;100392.69;4485043;31;20080;-63
2022/06/05 02:22:23;;;;;;;8.25;6.25;;;;;;;19.58;100.00;100385.63;4484915;31;20220;-63
2022/06/05 02:24:53;;;;;;;12.23;5.50;;;;;;;19.53;100.00;100392.13;4485016;31;20103;-63
2022/06/05 02:27:23;;;;;;;8.82;6.00;;;;;;;19.45;100.00;100384.47;4484988;31;20076;-63
2022/06/05 02:29:52;;;;;;;12.27;6.22;;;;;;;19.36;100.00;100387.56;4484968;31;20153;-63
2022/06/05 02:32:57;;;;;;;6.75;6.05;;;;;;;19.33;100.00;100385.09;4485031;31;20092;-63
2022/06/05 02:35:41;;;;;;;7.03;5.75;;;;;;;19.17;100.00;100379.59;4484987;31;20126;-63
2022/06/05 02:38:30;;;;;;;6.28;5.72;;;;;;;19.02;100.00;100373.16;4484877;31;20384;-63
2022/06/05 02:41:16;;;;;;;11.85;6.57;;;;;;;18.96;100.00;100376.13;4484919;31;20076;-63
2022/06/05 02:44:31;;;;;;;7.45;6.30;;;;;;;18.86;100.00;100378.34;4484867;31;20556;-63
2022/06/05 02:47:05;;;;;;;7.50;6.80;;;;;;;18.77;100.00;100377.94;4484762;31;20186;-63
2022/06/05 02:49:39;;;;;;;10.38;7.05;;;;;;;18.80;100.00;100380.47;4484637;31;20076;-63
2022/06/05 02:52:09;;;;;;;7.87;6.25;;;;;;;18.82;100.00;100384.75;4484712;31;20165;-63
2022/06/05 02:54:45;;;;;;;17.40;6.60;;;;;;;18.87;100.00;100384.56;4484536;31;20423;-63
2022/06/05 02:57:13;;;;;;;8.52;6.80;;;;;;;18.90;100.00;100383.53;4484595;31;20437;-63
2022/06/05 02:59:40;;;;;;;10.00;5.72;;;;;;;18.95;100.00;100386.88;4484597;31;20141;-63
2022/06/05 03:04:53;;;;;;;8.07;7.25;;;;;;;18.95;100.00;100384.22;4484538;31;20414;-63
2022/06/05 03:07:20;;;;;;;8.18;7.05;;;;;;;18.88;100.00;100396.97;4484656;31;20099;-63
2022/06/05 03:09:48;;;;;;;10.60;7.55;;;;;;;18.81;100.00;100393.72;4484491;31;20121;-63
2022/06/05 03:12:15;;;;;;;8.43;7.70;;;;;;;18.79;100.00;100398.25;4484312;31;20427;-63
2022/06/05 03:14:42;;;;;;;7.72;7.03;;;;;;;18.77;100.00;100397.47;4484214;31;20100;-63
2022/06/05 03:17:09;;;;;;;10.15;8.57;;;;;;;18.81;100.00;100398.19;4484246;31;20429;-63
2022/06/05 03:19:36;;;;;;;15.07;8.77;;;;;;;18.86;100.00;100398.84;4484389;31;20148;-63
2022/06/05 03:22:04;;;;;;;9.55;7.07;;;;;;;18.84;100.00;100396.25;4469501;31;20496;-63
2022/06/05 03:24:31;;;;;;;12.23;7.10;;;;;;;18.93;100.00;100397.63;4486327;31;20161;-63
2022/06/05 03:26:59;;;;;;;8.75;7.43;;;;;;;18.96;100.00;100400.16;4486840;31;20096;-63
2022/06/05 03:29:26;;;;;;;11.05;7.40;;;;;;;19.07;100.00;100397.84;4486501;31;20463;-63
2022/06/05 03:31:53;;;;;;;7.93;7.20;;;;;;;19.05;100.00;100402.41;4471949;31;20456;-63
2022/06/05 03:34:20;;;;;;;8.50;7.03;;;;;;;19.08;100.00;100404.94;4486474;31;20131;-63
2022/06/05 03:36:48;;;;;;;7.70;6.65;;;;;;;19.06;100.00;100409.47;4486506;31;20320;-63
2022/06/05 03:39:16;;;;;;;8.18;7.00;;;;;;;19.05;100.00;100415.75;4486442;31;20538;-63
2022/06/05 03:41:43;;;;;;;10.10;7.25;;;;;;;19.13;100.00;100425.22;4486567;31;20846;-63
2022/06/05 03:44:12;;;;;;;8.90;7.28;;;;;;;19.18;100.00;100428.53;4486495;31;20487;-63
2022/06/05 03:46:40;;;;;;;10.50;7.35;;;;;;;19.27;100.00;100428.09;4486628;31;20125;-63
2022/06/05 03:49:08;;;;;;;13.93;7.90;;;;;;;19.28;100.00;100437.84;4486500;31;20101;-63
2022/06/05 03:51:36;;;;;;;10.07;8.35;;;;;;;19.24;100.00;100445.12;4486417;31;20100;-63
2022/06/05 03:54:04;;;;;;;8.02;7.20;;;;;;;19.24;100.00;100446.94;4486365;31;20100;-63
2022/06/05 03:56:31;;;;;;;8.20;7.20;;;;;;;19.32;100.00;100456.31;4486435;31;20130;-63
2022/06/05 03:58:58;;;;;;;13.75;8.38;;;;;;;19.42;100.00;100458.56;4486269;31;20075;-63
2022/06/05 04:01:27;;;;;;;12.43;7.53;;;;;;;19.48;100.00;100459.16;4486275;31;20452;-63
2022/06/05 04:03:56;;;;;;;9.85;8.00;;;;;;;19.60;100.00;100460.37;4486261;31;20084;-63
2022/06/05 04:06:29;;;;;;;13.25;7.97;;;;;;;19.50;100.00;100467.94;4486256;31;20103;-63
2022/06/05 04:08:59;;;;;;;9.88;7.15;;;;;;;19.44;100.00;100478.09;4486491;31;20110;-63
2022/06/05 04:11:28;;;;;;;8.68;7.57;;;;;;;19.48;100.00;100477.00;4486269;31;20506;-63
2022/06/05 04:13:56;;;;;;;12.70;7.80;;;;;;;19.56;100.00;100481.03;4486179;31;20103;-63
2022/06/05 04:16:26;;;;;;;10.00;7.15;;;;;;;19.64;100.00;100475.34;4486163;31;20518;-63
2022/06/05 04:18:54;;;;;;;11.18;7.35;;;;;;;19.74;100.00;100486.47;4486423;31;20103;-63
2022/06/05 04:21:27;;;;;;;16.15;7.97;;;;;;;19.80;100.00;100486.19;4486026;31;20104;-63
2022/06/05 04:23:55;;;;;;;10.48;7.85;;;;;;;19.98;100.00;100490.63;4483431;31;83994;-63
2022/06/05 04:26:26;;;;;;;10.85;8.10;;;;;;;20.11;100.00;100485.56;4486084;31;20092;-63
2022/06/05 04:28:54;;;;;;;7.07;6.25;;;;;;;20.28;100.00;100488.25;4485983;31;20522;-63
2022/06/05 04:31:23;;;;;;;10.02;8.25;;;;;;;20.48;100.00;100491.72;4486074;31;20168;-63
2022/06/05 04:33:53;;;;;;;9.40;7.60;;;;;;;20.61;100.00;100489.31;4486013;31;20183;-63
2022/06/05 04:36:21;;;;;;;8.07;6.68;;;;;;;20.70;100.00;100494.16;4486162;31;20100;-63
2022/06/05 04:38:49;;;;;;;8.55;7.45;;;;;;;20.90;100.00;100490.44;4486110;31;20096;-63
2022/06/05 04:41:20;;;;;;;12.18;9.60;;;;;;;20.93;100.00;100493.84;4486230;31;20514;-63
2022/06/05 04:43:49;;;;;;;13.95;11.57;;;;;;;21.04;100.00;100489.72;4486196;31;20416;-63
2022/06/05 04:46:18;;;;;;;19.87;14.38;;;;;;;21.11;100.00;100500.03;4486049;31;20100;-63
2022/06/05 04:48:46;;;;;;;15.85;14.02;;;;;;;21.19;100.00;100494.25;4486139;31;20095;-63
2022/06/05 04:51:15;;;;;;;17.75;14.75;;;;;;;21.30;99.42;100499.88;4486149;31;20096;-63
2022/06/05 04:53:43;;;;;;;12.20;10.88;;;;;;;21.46;97.65;100500.81;4485981;31;20172;-63
2022/06/05 04:56:14;;;;;;;14.05;12.10;;;;;;;21.70;94.73;100508.44;4485843;31;20206;-63
2022/06/05 04:58:41;;;;;;;15.02;11.95;;;;;;;21.92;94.27;100514.31;4486120;31;20197;-63
2022/06/05 05:01:20;;;;;;;15.02;12.02;;;;;;;21.81;94.31;100516.75;4486382;31;20741;-63
2022/06/05 05:03:52;;;;;;;15.88;13.25;;;;;;;21.70;95.85;100517.34;4485981;31;20107;-63
2022/06/05 05:06:21;;;;;;;18.35;13.30;;;;;;;21.67;96.05;100509.47;4486141;31;20159;-63
2022/06/05 05:08:50;;;;;;;19.80;13.77;;;;;;;21.58;95.69;100519.84;4458183;31;20156;-63
2022/06/05 05:11:18;;;;;;;16.90;13.43;;;;;;;21.60;95.24;100531.38;4486119;31;20118;-63
2022/06/05 05:13:45;;;;;;;19.45;14.48;;;;;;;21.57;96.20;100531.53;4486068;31;20096;-63
2022/06/05 05:16:13;;;;;;;20.02;15.13;;;;;;;21.62;95.51;100532.13;4485769;31;20179;-63
2022/06/05 05:18:40;;;;;;;18.25;13.90;;;;;;;21.57;96.76;100539.56;4485670;31;20420;-63
2022/06/05 05:21:11;;;;;;;20.85;15.20;;;;;;;21.52;96.51;100545.19;4485388;31;20452;-63
2022/06/05 05:23:41;;;;;;;17.98;14.18;;;;;;;21.56;97.15;100548.56;4458692;31;20124;-66
2022/06/05 05:26:12;;;;;;;19.25;14.63;;;;;;;21.61;96.28;100552.72;4485928;31;20463;-66
2022/06/05 05:28:42;;;;;;;23.33;15.50;;;;;;;21.61;96.76;100551.84;4485840;31;20143;-66
2022/06/05 05:31:14;;;;;;;22.13;15.18;;;;;;;21.70;95.97;100562.09;4470820;31;20441;-66
2022/06/05 05:33:42;;;;;;;19.33;14.60;;;;;;;21.59;95.55;100568.03;4485618;31;20157;-66
2022/06/05 05:36:10;;;;;;;21.00;14.75;;;;;;;21.65;94.30;100566.81;4485498;31;20475;-66
2022/06/05 05:38:38;;;;;;;21.50;16.17;;;;;;;21.73;94.17;100569.94;4485700;31;20155;-66
2022/06/05 05:43:51;;;;;;;18.48;14.02;;;;;;;21.87;93.56;100577.22;4485477;31;20156;-66
2022/06/05 05:46:18;;;;;;;19.23;14.02;;;;;;;21.93;92.75;100577.75;4484837;31;20091;-66
2022/06/05 05:48:45;;;;;;;17.17;10.75;;;;;;;21.85;92.96;100566.59;4485648;31;20770;-66
2022/06/05 05:51:15;;;;;;;12.85;11.15;;;;;;;21.90;90.63;100567.19;4485494;31;20088;-66
2022/06/05 05:53:42;;;;;;;15.38;11.98;;;;;;;21.86;91.40;100570.13;4485419;31;20440;-66
2022/06/05 05:56:12;;;;;;;12.98;10.20;;;;;;;21.88;91.79;100568.25;4485389;31;20135;-66
2022/06/05 05:58:40;;;;;;;12.65;9.15;;;;;;;21.91;91.40;100576.13;4485377;31;20440;-66
2022/06/05 06:01:10;;;;;;;10.30;8.20;;;;;;;21.99;89.50;100563.13;4485535;31;20096;-66
2022/06/05 06:03:37;;;;;;;16.83;9.52;;;;;;;22.06;88.16;100572.56;4485142;31;20084;-66
2022/06/05 06:06:05;;;;;;;13.13;8.95;;;;;;;21.99;89.43;100563.13;4485244;31;20126;-66
2022/06/05 06:08:32;;;;;;;11.90;8.38;;;;;;;22.14;88.50;100558.72;4485169;31;20506;-66
2022/06/05 06:11:00;;;;;;;10.23;8.63;;;;;;;22.31;87.65;100565.84;4485250;31;20080;-66
2022/06/05 06:13:29;;;;;;;8.38;7.47;;;;;;;22.36;87.70;100561.91;4485350;31;20165;-66
2022/06/05 06:15:56;;;;;;;6.65;5.82;;;;;;;22.35;86.43;100554.81;4485167;31;20160;-66
2022/06/05 06:18:23;;;;;;;7.65;5.82;;;;;;;22.29;86.16;100559.69;4485080;31;20129;-66
2022/06/05 06:20:51;;;;;;;8.23;5.22;;;;;;;22.30;85.93;100556.91;4485065;31;20143;-66
2022/06/05 06:23:18;;;;;;;5.75;5.25;;;;;;;22.47;85.14;100557.75;4484944;31;20168;-66
2022/06/05 06:25:45;;;;;;;5.70;5.20;;;;;;;22.53;83.98;100550.19;4484979;31;20095;-66
2022/06/05 06:28:12;;;;;;;7.28;5.12;;;;;;;22.88;81.81;100547.22;4484950;31;20076;-66
2022/06/05 06:30:40;;;;;;;5.07;4.37;;;;;;;22.96;81.10;100549.47;4484954;31;20153;-66
2022/06/05 06:33:08;;;;;;;6.15;5.55;;;;;;;23.24;79.28;100541.44;4485019;31;20360;-66
2022/06/05 06:35:41;;;;;;;5.35;4.35;;;;;;;23.25;79.21;100536.94;4484978;31;20177;-66
2022/06/05 06:38:09;;;;;;;4.22;3.92;;;;;;;23.36;78.91;100539.84;4484905;31;20504;-66
2022/06/05 06:40:36;;;;;;;5.87;4.45;;;;;;;23.51;77.91;100541.53;4470490;31;20152;-66
2022/06/05 06:43:03;;;;;;;5.03;4.18;;;;;;;23.65;77.37;100540.69;4484737;31;20447;-66
2022/06/05 06:45:32;;;;;;;7.18;4.45;;;;;;;23.64;78.27;100541.66;4484830;31;20092;-66
2022/06/05 06:48:00;;;;;;;4.78;4.37;;;;;;;23.66;78.09;100545.09;4485018;31;20393;-66
2022/06/05 06:50:27;;;;;;;4.70;4.28;;;;;;;23.63;78.11;100545.28;4484884;31;20104;-66
2022/06/05 06:52:54;;;;;;;6.30;4.03;;;;;;;24.08;75.87;100537.91;4484792;31;20516;-66
2022/06/05 06:55:22;;;;;;;11.52;4.75;;;;;;;24.02;76.02;100535.63;4484814;31;20104;-66
2022/06/05 06:57:49;;;;;;;6.93;4.10;;;;;;;23.80;77.52;100536.16;4484966;31;20080;-66
2022/06/05 07:00:19;;;;;;;4.93;4.40;;;;;;;24.17;75.13;100531.94;4472471;31;20474;-66
2022/06/05 07:02:46;;;;;;;6.32;3.87;;;;;;;24.30;74.25;100535.53;4486612;31;20229;-66
2022/06/05 07:05:13;;;;;;;7.20;5.05;;;;;;;24.43;74.04;100530.22;4486645;31;20179;-66
2022/06/05 07:07:40;;;;;;;6.80;4.70;;;;;;;24.74;73.27;100522.75;4487021;31;20579;-66
2022/06/05 07:10:08;;;;;;;4.18;3.80;;;;;;;24.88;72.38;100519.97;4486601;31;20194;-66
2022/06/05 07:12:35;;;;;;;8.38;4.35;;;;;;;25.25;70.10;100517.41;4486294;31;20517;-66
2022/06/05 07:15:04;;;;;;;4.50;4.05;;;;;;;25.35;69.06;100523.03;4486121;31;20817;-66
2022/06/05 07:17:32;;;;;;;5.85;4.75;;;;;;;25.28;68.09;100520.75;4486556;31;20084;-67
2022/06/05 07:19:59;;;;;;;8.15;4.82;;;;;;;25.20;69.60;100523.12;4486499;31;20096;-66
2022/06/05 07:22:27;;;;;;;4.78;4.05;;;;;;;25.28;68.57;100517.19;4486381;31;20081;-66
2022/06/05 07:24:54;;;;;;;5.12;4.62;;;;;;;25.50;66.70;100522.75;4485735;31;20099;-66
2022/06/05 07:27:21;;;;;;;9.25;4.50;;;;;;;25.22;67.92;100528.41;4485980;31;20083;-66
2022/06/05 07:29:49;;;;;;;6.00;4.80;;;;;;;25.39;66.83;100524.53;4471656;31;20145;-67
2022/06/05 07:32:16;;;;;;;5.22;4.72;;;;;;;25.36;67.23;100514.81;4486677;31;20165;-67
2022/06/05 07:34:43;;;;;;;8.57;4.45;;;;;;;25.50;66.43;100521.91;4486448;31;20108;-66
2022/06/05 07:37:11;;;;;;;6.57;4.62;;;;;;;25.72;66.45;100527.50;4486446;31;20083;-67
2022/06/05 07:39:38;;;;;;;5.20;4.70;;;;;;;25.70;65.79;100529.44;4486438;31;20130;-67
2022/06/05 07:42:05;;;;;;;9.25;4.78;;;;;;;26.01;65.10;100532.63;4486573;31;20131;-66
2022/06/05 07:44:35;;;;;;;8.77;4.55;;;;;;;25.71;64.84;100536.53;4486528;31;20096;-66
2022/06/05 07:47:07;;;;;;;5.90;4.65;;;;;;;25.86;65.01;100539.97;4486472;31;20084;-66
2022/06/05 07:49:39;;;;;;;4.90;4.45;;;;;;;25.87;63.79;100538.19;4486604;31;20080;-66
2022/06/05 07:54:56;;;;;;;6.43;5.82;;;;;;;26.13;64.99;100536.22;4486562;31;20092;-66
2022/06/05 07:57:23;;;;;;;5.55;4.97;;;;;;;26.04;64.13;100539.59;4514017;31;20155;-67
2022/06/05 07:59:51;;;;;;;7.50;4.90;;;;;;;26.08;63.69;100546.50;4517681;31;20087;-66
2022/06/05 08:02:22;;;;;;;7.45;4.57;;;;;;;26.18;64.31;100536.75;4518286;31;20114;-66
2022/06/05 08:04:51;;;;;;;4.95;4.43;;;;;;;26.28;63.48;100542.31;4518607;31;20510;-67
2022/06/05 08:07:24;;;;;;;5.60;4.10;;;;;;;26.30;63.68;100548.50;4518274;31;20079;-67
2022/06/05 08:09:52;;;;;;;5.37;4.70;;;;;;;26.77;62.76;100542.19;4517940;31;20126;-66
2022/06/05 08:12:21;;;;;;;5.78;4.37;;;;;;;27.05;60.91;100546.31;4518064;31;20092;-67
2022/06/05 08:14:50;;;;;;;4.80;4.35;;;;;;;27.22;59.98;100545.03;4517859;31;20091;-67
2022/06/05 08:17:20;;;;;;;5.07;4.45;;;;;;;27.29;59.67;100548.13;4517025;31;20079;-67
2022/06/05 08:19:48;;;;;;;6.75;5.25;;;;;;;27.42;58.75;100543.41;4517906;31;20071;-67
2022/06/05 08:22:19;;;;;;;7.47;4.97;;;;;;;27.20;59.52;100543.41;4518234;31;20130;-67
2022/06/05 08:24:48;;;;;;;9.05;4.80;;;;;;;27.01;60.39;100538.56;4518117;31;20091;-66
2022/06/05 08:27:20;;;;;;;6.05;4.05;;;;;;;27.42;59.55;100546.13;4518202;31;20075;-67
2022/06/05 08:29:47;;;;;;;4.90;4.47;;;;;;;27.55;58.27;100546.88;4518321;31;20083;-67
2022/06/05 08:32:14;;;;;;;4.75;4.35;;;;;;;27.28;59.65;100547.25;4518183;31;20751;-67
2022/06/05 08:34:43;;;;;;;13.57;4.90;;;;;;;27.57;58.94;100547.62;4517999;31;20103;-67
2022/06/05 08:42:56;;;;;;;5.20;4.70;;;;;;;27.03;59.81;100545.59;4518152;31;20485;-67
2022/06/05 08:45:39;;;;;;;5.65;5.22;;;;;;;26.88;60.93;100553.03;4518245;31;20167;-67
2022/06/05 08:48:13;;;;;;;5.20;4.90;;;;;;;26.97;60.58;100551.47;4518057;31;20483;-67
2022/06/05 08:50:55;;;;;;;6.53;5.40;;;;;;;27.01;59.92;100557.50;4518151;31;20075;-67
2022/06/05 08:53:49;;;;;;;5.30;4.90;;;;;;;26.83;60.40;100563.34;4518054;31;20115;-66
2022/06/05 08:56:38;;;;;;;5.95;5.43;;;;;;;27.48;59.60;100559.19;4518090;31;20182;-67
2022/06/05 08:59:18;;;;;;;5.60;5.10;;;;;;;27.88;58.06;100550.56;4517961;31;20145;-67
2022/06/05 09:01:50;;;;;;;5.75;4.10;;;;;;;28.06;56.72;100549.06;4517993;31;20087;-66
2022/06/05 09:04:41;;;;;;;4.47;4.10;;;;;;;28.12;56.51;100548.53;4502779;31;20099;-67
2022/06/05 09:07:20;;;;;;;4.97;4.00;;;;;;;28.29;55.90;100544.44;4517668;31;20160;-67
2022/06/05 09:09:55;;;;;;;4.78;4.37;;;;;;;28.74;54.29;100538.87;4517786;31;20091;-67
2022/06/05 09:12:40;;;;;;;6.80;4.80;;;;;;;28.52;54.45;100536.28;4517771;31;20689;-67
2022/06/05 09:15:35;;;;;;;5.00;4.60;;;;;;;28.45;55.33;100538.63;4517818;31;20119;-67
2022/06/05 09:18:14;;;;;;;4.97;4.12;;;;;;;28.37;55.14;100538.37;4517673;31;20099;-67
2022/06/05 09:20:53;;;;;;;5.70;4.85;;;;;;;28.92;53.52;100524.72;4516647;31;20559;-67
2022/06/05 09:23:29;;;;;;;6.68;4.78;;;;;;;28.74;55.23;100530.72;4517615;31;20076;-67
2022/06/05 09:26:04;;;;;;;5.05;4.50;;;;;;;28.55;53.72;100544.12;4517346;31;20163;-66
2022/06/05 09:29:02;;;;;;;6.18;5.60;;;;;;;28.46;54.04;100547.62;4517681;31;20131;-67
2022/06/05 09:31:47;;;;;;;6.00;5.40;;;;;;;28.17;55.69;100548.19;4517532;31;20079;-67
2022/06/05 09:34:22;;;;;;;5.70;5.20;;;;;;;28.88;54.00;100537.69;4517586;31;20091;-67
2022/06/05 09:37:28;;;;;;;8.68;5.93;;;;;;;28.88;53.43;100539.53;4517586;31;20107;-67
2022/06/05 09:40:04;;;;;;;6.85;5.75;;;;;;;28.67;53.81;100545.81;4517646;31;20099;-67
2022/06/05 09:43:06;;;;;;;6.43;5.75;;;;;;;28.71;54.38;100551.81;4517431;31;20453;-67
2022/06/05 09:45:42;;;;;;;5.93;5.47;;;;;;;29.12;52.67;100552.84;4517240;31;20678;-67
2022/06/05 09:48:14;;;;;;;8.05;6.18;;;;;;;29.02;51.93;100550.09;4517382;31;20542;-67
2022/06/05 09:50:42;;;;;;;5.75;5.07;;;;;;;29.18;51.67;100561.31;4517350;31;20133;-67
2022/06/05 09:53:17;;;;;;;8.02;5.25;;;;;;;29.45;51.28;100568.87;4502651;31;20095;-67
2022/06/05 09:56:06;;;;;;;6.30;5.70;;;;;;;29.03;52.22;100566.22;4517384;31;20083;-67
2022/06/05 09:59:00;;;;;;;5.97;5.50;;;;;;;28.58;52.42;100571.81;4502311;31;20164;-67
2022/06/05 10:01:35;;;;;;;6.40;5.80;;;;;;;28.62;52.58;100571.56;4517212;31;20534;-67
2022/06/05 10:04:05;;;;;;;5.87;5.35;;;;;;;29.01;51.02;100570.03;4502307;31;20133;-67
2022/06/05 10:06:38;;;;;;;7.00;5.15;;;;;;;29.48;51.11;100581.34;4517067;31;20554;-67
2022/06/05 10:09:13;;;;;;;8.07;5.68;;;;;;;29.80;50.37;100575.78;4517241;31;20087;-67
2022/06/05 10:11:57;;;;;;;7.00;5.15;;;;;;;30.38;48.39;100570.50;4517160;31;20099;-67
2022/06/05 10:14:43;;;;;;;5.62;5.10;;;;;;;30.41;47.85;100570.22;4517095;31;20506;-67
2022/06/05 10:17:31;;;;;;;5.62;5.12;;;;;;;30.70;47.30;100570.22;4517130;31;20154;-67
2022/06/05 10:20:04;;;;;;;10.68;5.65;;;;;;;30.89;46.82;100574.00;4517055;31;20135;-67
2022/06/05 10:23:00;;;;;;;10.10;5.22;;;;;;;31.25;45.74;100568.75;4516956;31;20532;-67
2022/06/05 10:26:20;;;;;;;6.40;4.97;;;;;;;30.99;45.46;100572.13;4516500;31;20137;-67
2022/06/05 10:28:51;;;;;;;6.28;5.65;;;;;;;31.04;45.40;100547.19;4483572;31;20114;-67
2022/06/05 10:31:21;;;;;;;5.40;4.95;;;;;;;30.62;45.13;100555.63;4516868;31;20126;-67
2022/06/05 10:33:53;;;;;;;5.75;5.20;;;;;;;31.03;46.28;100551.78;4519007;31;20115;-67
2022/06/05 10:36:29;;;;;;;6.82;5.37;;;;;;;31.23;45.16;100538.94;4518824;31;20099;-67
2022/06/05 10:39:12;;;;;;;4.70;3.97;;;;;;;30.86;44.45;100549.78;4518848;31;20139;-67
2022/06/05 10:41:53;;;;;;;5.40;4.90;;;;;;;31.01;43.36;100533.84;4518705;31;20513;-67
2022/06/05 10:44:32;;;;;;;6.43;4.12;;;;;;;30.74;44.38;100535.44;4518742;31;20091;-67
2022/06/05 10:47:34;;;;;;;4.95;4.55;;;;;;;30.80;44.48;100531.31;4518648;31;20498;-67
2022/06/05 10:50:07;;;;;;;4.35;3.95;;;;;;;31.01;43.20;100522.97;4518718;31;20127;-67
2022/06/05 10:52:57;;;;;;;6.62;4.10;;;;;;;30.94;42.17;100522.69;4518814;31;20126;-67
2022/06/05 10:55:30;;;;;;;6.18;4.00;;;;;;;31.23;42.00;100525.34;4517866;31;20167;-67
2022/06/05 10:58:14;;;;;;;3.65;3.30;;;;;;;31.24;41.07;100508.03;4518623;31;20084;-67
2022/06/05 11:00:49;;;;;;;4.20;3.65;;;;;;;31.32;40.83;100508.16;4518613;31;20067;-67
2022/06/05 11:03:27;;;;;;;3.55;3.10;;;;;;;31.26;40.42;100511.44;4518541;31;20087;-67
2022/06/05 11:06:18;;;;;;;3.35;3.08;;;;;;;31.70;39.00;100505.37;4518703;31;20129;-67
2022/06/05 11:09:17;;;;;;;7.25;3.80;;;;;;;31.49;40.01;100508.37;4518805;31;20442;-67
2022/06/05 11:15:30;;;;;;;3.78;3.47;;;;;;;31.65;39.02;100505.84;4518589;31;20554;-67
2022/06/05 11:18:33;;;;;;;3.35;3.05;;;;;;;31.64;38.92;100510.44;4518538;31;20103;-67
2022/06/05 11:21:02;;;;;;;3.40;3.10;;;;;;;32.07;40.37;100500.75;4518334;31;20498;-67
2022/06/05 11:23:34;;;;;;;3.50;3.20;;;;;;;32.10;37.73;100510.47;4518454;31;20091;-67
2022/06/05 11:26:22;;;;;;;3.65;3.35;;;;;;;32.31;37.95;100508.31;4518346;31;20174;-67
2022/06/05 11:29:20;;;;;;;3.15;2.95;;;;;;;32.70;37.48;100518.06;4518443;31;20130;-67
2022/06/05 11:31:48;;;;;;;4.68;2.80;;;;;;;33.78;35.85;100523.03;4518397;31;20079;-67
2022/06/05 11:34:54;;;;;;;3.67;2.90;;;;;;;34.89;33.74;100503.53;4518543;31;20447;-67
2022/06/05 11:37:43;;;;;;;3.23;2.97;;;;;;;35.31;32.79;100507.91;4518362;31;20174;-67
2022/06/05 11:40:19;;;;;;;3.87;2.97;;;;;;;36.61;30.42;100489.91;4518340;31;20114;-67
2022/06/05 11:43:12;;;;;;;3.12;2.83;;;;;;;36.08;32.52;100499.91;4518343;31;20127;-67
2022/06/05 11:45:51;;;;;;;3.10;2.90;;;;;;;35.36;32.78;100510.12;4518134;31;20106;-67
2022/06/05 11:48:25;;;;;;;3.85;3.30;;;;;;;35.80;32.33;100490.44;4518332;31;20154;-67
2022/06/05 11:51:02;;;;;;;2.92;2.72;;;;;;;36.01;31.22;100487.94;4518395;31;20091;-67
2022/06/05 11:53:48;;;;;;;3.10;2.90;;;;;;;37.50;28.89;100483.69;4518193;31;20131;-67
2022/06/05 11:56:36;;;;;;;2.72;2.53;;;;;;;38.13;28.20;100492.28;4518209;31;20147;-67
2022/06/05 11:59:15;;;;;;;3.67;3.25;;;;;;;36.99;29.27;100487.16;4518434;31;20122;-67
2022/06/05 12:01:48;;;;;;;3.58;3.28;;;;;;;34.96;32.06;100484.53;4518188;31;20103;-67
2022/06/05 12:04:34;;;;;;;3.35;3.15;;;;;;;35.51;32.08;100472.75;4517994;31;20075;-67
2022/06/05 12:07:04;;;;;;;4.40;3.28;;;;;;;37.75;28.82;100464.97;4518180;31;20452;-67
2022/06/05 12:09:41;;;;;;;3.20;2.72;;;;;;;38.62;27.26;100461.22;4518160;31;20126;-67